sensor_id;sensor_type;location;lat;lon;timestamp;P1;durP1;ratioP1;P2;durP2;ratioP2
67051;SDS011;53957;47.222;18.670;2022-10-16T00:01:25;15.48;;;6.78;;
67051;SDS011;53957;47.222;18.670;2022-10-16T00:04:30;8.18;;;6.37;;
67051;SDS011;53957;47.222;18.670;2022-10-16T00:07:33;8.45;;;6.18;;
67051;SDS011;53957;47.222;18.670;2022-10-16T00:10:37;14.15;;;6.25;;
67051;SDS011;53957;47.222;18.670;2022-10-16T00:13:40;8.60;;;6.22;;
67051;SDS011;53957;47.222;18.670;2022-10-16T00:16:45;8.65;;;5.60;;
67051;SDS011;53957;47.222;18.670;2022-10-16T00:19:48;10.18;;;6.47;;
67051;SDS011;53957;47.222;18.670;2022-10-16T00:22:55;17.12;;;6.10;;
67051;SDS011;53957;47.222;18.670;2022-10-16T00:26:00;5.80;;;5.03;;
67051;SDS011;53957;47.222;18.670;2022-10-16T00:29:05;6.68;;;6.03;;
67051;SDS011;53957;47.222;18.670;2022-10-16T00:32:19;7.20;;;5.40;;
67051;SDS011;53957;47.222;18.670;2022-10-16T00:35:22;9.98;;;5.35;;
67051;SDS011;53957;47.222;18.670;2022-10-16T00:38:25;8.57;;;5.57;;
67051;SDS011;53957;47.222;18.670;2022-10-16T00:41:29;5.90;;;5.30;;
67051;SDS011;53957;47.222;18.670;2022-10-16T00:44:50;9.80;;;5.60;;
67051;SDS011;53957;47.222;18.670;2022-10-16T00:48:10;5.62;;;5.12;;
67051;SDS011;53957;47.222;18.670;2022-10-16T00:51:17;9.13;;;5.30;;
67051;SDS011;53957;47.222;18.670;2022-10-16T00:54:25;7.85;;;5.50;;
67051;SDS011;53957;47.222;18.670;2022-10-16T00:57:30;10.60;;;5.65;;
67051;SDS011;53957;47.222;18.670;2022-10-16T01:00:34;15.23;;;5.93;;
67051;SDS011;53957;47.222;18.670;2022-10-16T01:03:37;7.45;;;5.20;;
67051;SDS011;53957;47.222;18.670;2022-10-16T01:10:17;7.47;;;5.82;;
67051;SDS011;53957;47.222;18.670;2022-10-16T01:13:40;8.25;;;5.82;;
67051;SDS011;53957;47.222;18.670;2022-10-16T01:16:49;6.95;;;5.80;;
67051;SDS011;53957;47.222;18.670;2022-10-16T01:20:03;10.90;;;4.97;;
67051;SDS011;53957;47.222;18.670;2022-10-16T01:26:57;6.10;;;5.15;;
67051;SDS011;53957;47.222;18.670;2022-10-16T01:30:12;8.15;;;5.97;;
67051;SDS011;53957;47.222;18.670;2022-10-16T01:33:20;6.62;;;5.20;;
67051;SDS011;53957;47.222;18.670;2022-10-16T01:36:41;6.18;;;4.97;;
67051;SDS011;53957;47.222;18.670;2022-10-16T01:39:48;10.52;;;5.95;;
67051;SDS011;53957;47.222;18.670;2022-10-16T01:42:55;7.47;;;5.18;;
67051;SDS011;53957;47.222;18.670;2022-10-16T01:46:05;6.05;;;5.45;;
67051;SDS011;53957;47.222;18.670;2022-10-16T01:49:09;8.70;;;5.53;;
67051;SDS011;53957;47.222;18.670;2022-10-16T01:52:18;6.97;;;5.53;;
67051;SDS011;53957;47.222;18.670;2022-10-16T01:55:28;7.50;;;5.03;;
67051;SDS011;53957;47.222;18.670;2022-10-16T01:58:35;6.43;;;5.00;;
67051;SDS011;53957;47.222;18.670;2022-10-16T02:01:49;7.32;;;5.60;;
67051;SDS011;53957;47.222;18.670;2022-10-16T02:05:20;8.70;;;5.30;;
67051;SDS011;53957;47.222;18.670;2022-10-16T02:08:33;6.10;;;5.57;;
67051;SDS011;53957;47.222;18.670;2022-10-16T02:11:38;6.12;;;5.32;;
67051;SDS011;53957;47.222;18.670;2022-10-16T02:14:41;6.35;;;5.32;;
67051;SDS011;53957;47.222;18.670;2022-10-16T02:17:44;9.05;;;5.57;;
67051;SDS011;53957;47.222;18.670;2022-10-16T02:20:51;8.10;;;5.03;;
67051;SDS011;53957;47.222;18.670;2022-10-16T02:27:32;8.00;;;5.72;;
67051;SDS011;53957;47.222;18.670;2022-10-16T02:30:51;5.80;;;5.00;;
67051;SDS011;53957;47.222;18.670;2022-10-16T02:33:59;8.88;;;5.72;;
67051;SDS011;53957;47.222;18.670;2022-10-16T02:37:06;7.87;;;5.40;;
67051;SDS011;53957;47.222;18.670;2022-10-16T02:40:10;6.22;;;5.62;;
67051;SDS011;53957;47.222;18.670;2022-10-16T02:43:13;9.82;;;5.53;;
67051;SDS011;53957;47.222;18.670;2022-10-16T02:46:17;8.90;;;6.07;;
67051;SDS011;53957;47.222;18.670;2022-10-16T02:49:22;5.72;;;5.12;;
67051;SDS011;53957;47.222;18.670;2022-10-16T02:52:30;8.75;;;5.28;;
67051;SDS011;53957;47.222;18.670;2022-10-16T02:55:32;6.65;;;5.65;;
67051;SDS011;53957;47.222;18.670;2022-10-16T02:58:39;6.75;;;6.05;;
67051;SDS011;53957;47.222;18.670;2022-10-16T03:01:42;6.90;;;5.50;;
67051;SDS011;53957;47.222;18.670;2022-10-16T03:04:45;8.07;;;5.78;;
67051;SDS011;53957;47.222;18.670;2022-10-16T03:07:48;10.57;;;5.97;;
67051;SDS011;53957;47.222;18.670;2022-10-16T03:10:51;7.12;;;5.65;;
67051;SDS011;53957;47.222;18.670;2022-10-16T03:13:54;12.85;;;5.47;;
67051;SDS011;53957;47.222;18.670;2022-10-16T03:16:57;9.35;;;6.00;;
67051;SDS011;53957;47.222;18.670;2022-10-16T03:20:00;12.20;;;6.00;;
67051;SDS011;53957;47.222;18.670;2022-10-16T03:23:03;6.95;;;5.00;;
67051;SDS011;53957;47.222;18.670;2022-10-16T03:26:08;7.37;;;5.95;;
67051;SDS011;53957;47.222;18.670;2022-10-16T03:29:11;7.45;;;5.43;;
67051;SDS011;53957;47.222;18.670;2022-10-16T03:32:14;6.05;;;5.28;;
67051;SDS011;53957;47.222;18.670;2022-10-16T03:35:17;7.20;;;5.70;;
67051;SDS011;53957;47.222;18.670;2022-10-16T03:38:20;5.65;;;5.15;;
67051;SDS011;53957;47.222;18.670;2022-10-16T03:41:24;6.20;;;5.53;;
67051;SDS011;53957;47.222;18.670;2022-10-16T03:44:27;6.45;;;5.40;;
67051;SDS011;53957;47.222;18.670;2022-10-16T03:47:30;7.40;;;6.07;;
67051;SDS011;53957;47.222;18.670;2022-10-16T03:50:35;6.32;;;5.65;;
67051;SDS011;53957;47.222;18.670;2022-10-16T03:53:38;10.52;;;5.95;;
67051;SDS011;53957;47.222;18.670;2022-10-16T03:56:41;13.30;;;6.43;;
67051;SDS011;53957;47.222;18.670;2022-10-16T03:59:44;8.35;;;6.65;;
67051;SDS011;53957;47.222;18.670;2022-10-16T04:02:47;12.18;;;8.05;;
67051;SDS011;53957;47.222;18.670;2022-10-16T04:05:51;18.77;;;8.68;;
67051;SDS011;53957;47.222;18.670;2022-10-16T04:08:55;18.45;;;7.45;;
67051;SDS011;53957;47.222;18.670;2022-10-16T04:11:58;7.30;;;6.47;;
67051;SDS011;53957;47.222;18.670;2022-10-16T04:15:04;12.50;;;7.32;;
67051;SDS011;53957;47.222;18.670;2022-10-16T04:18:11;9.30;;;6.75;;
67051;SDS011;53957;47.222;18.670;2022-10-16T04:21:14;10.10;;;7.32;;
67051;SDS011;53957;47.222;18.670;2022-10-16T04:24:19;13.20;;;7.50;;
67051;SDS011;53957;47.222;18.670;2022-10-16T04:27:22;10.23;;;8.05;;
67051;SDS011;53957;47.222;18.670;2022-10-16T04:30:26;9.82;;;7.00;;
67051;SDS011;53957;47.222;18.670;2022-10-16T04:33:29;9.98;;;6.75;;
67051;SDS011;53957;47.222;18.670;2022-10-16T04:36:31;9.27;;;6.18;;
67051;SDS011;53957;47.222;18.670;2022-10-16T04:39:34;9.50;;;6.18;;
67051;SDS011;53957;47.222;18.670;2022-10-16T04:42:37;8.35;;;5.82;;
67051;SDS011;53957;47.222;18.670;2022-10-16T04:45:40;9.45;;;6.53;;
67051;SDS011;53957;47.222;18.670;2022-10-16T04:48:43;10.57;;;6.05;;
67051;SDS011;53957;47.222;18.670;2022-10-16T04:51:47;7.60;;;6.07;;
67051;SDS011;53957;47.222;18.670;2022-10-16T04:54:50;14.48;;;5.90;;
67051;SDS011;53957;47.222;18.670;2022-10-16T04:57:58;9.48;;;6.32;;
67051;SDS011;53957;47.222;18.670;2022-10-16T05:01:02;7.93;;;5.82;;
67051;SDS011;53957;47.222;18.670;2022-10-16T05:04:04;8.98;;;5.78;;
67051;SDS011;53957;47.222;18.670;2022-10-16T05:07:17;7.60;;;6.12;;
67051;SDS011;53957;47.222;18.670;2022-10-16T05:10:34;9.90;;;6.65;;
67051;SDS011;53957;47.222;18.670;2022-10-16T05:13:42;12.50;;;6.60;;
67051;SDS011;53957;47.222;18.670;2022-10-16T05:16:55;8.77;;;5.70;;
67051;SDS011;53957;47.222;18.670;2022-10-16T05:20:19;7.05;;;5.90;;
67051;SDS011;53957;47.222;18.670;2022-10-16T05:23:30;8.82;;;6.45;;
67051;SDS011;53957;47.222;18.670;2022-10-16T05:26:43;6.50;;;5.70;;
67051;SDS011;53957;47.222;18.670;2022-10-16T05:29:50;9.75;;;6.07;;
67051;SDS011;53957;47.222;18.670;2022-10-16T05:33:21;8.10;;;5.95;;
67051;SDS011;53957;47.222;18.670;2022-10-16T05:36:35;9.15;;;6.28;;
67051;SDS011;53957;47.222;18.670;2022-10-16T05:39:44;7.93;;;5.95;;
67051;SDS011;53957;47.222;18.670;2022-10-16T05:42:49;10.90;;;6.43;;
67051;SDS011;53957;47.222;18.670;2022-10-16T05:46:05;8.57;;;6.22;;
67051;SDS011;53957;47.222;18.670;2022-10-16T05:49:08;7.65;;;6.25;;
67051;SDS011;53957;47.222;18.670;2022-10-16T05:52:51;7.30;;;6.12;;
67051;SDS011;53957;47.222;18.670;2022-10-16T05:56:14;7.75;;;5.57;;
67051;SDS011;53957;47.222;18.670;2022-10-16T05:59:59;10.15;;;6.00;;
67051;SDS011;53957;47.222;18.670;2022-10-16T06:03:02;7.87;;;6.57;;
67051;SDS011;53957;47.222;18.670;2022-10-16T06:06:45;8.40;;;6.35;;
67051;SDS011;53957;47.222;18.670;2022-10-16T06:10:08;9.90;;;6.43;;
67051;SDS011;53957;47.222;18.670;2022-10-16T06:13:32;7.32;;;6.30;;
67051;SDS011;53957;47.222;18.670;2022-10-16T06:16:37;7.18;;;6.35;;
67051;SDS011;53957;47.222;18.670;2022-10-16T06:19:50;8.52;;;6.43;;
67051;SDS011;53957;47.222;18.670;2022-10-16T06:22:52;9.68;;;6.68;;
67051;SDS011;53957;47.222;18.670;2022-10-16T06:26:03;12.30;;;6.32;;
67051;SDS011;53957;47.222;18.670;2022-10-16T06:29:29;9.57;;;6.40;;
67051;SDS011;53957;47.222;18.670;2022-10-16T06:33:12;13.82;;;6.43;;
67051;SDS011;53957;47.222;18.670;2022-10-16T06:36:16;7.90;;;5.87;;
67051;SDS011;53957;47.222;18.670;2022-10-16T06:39:19;9.32;;;6.00;;
67051;SDS011;53957;47.222;18.670;2022-10-16T06:42:27;9.23;;;5.85;;
67051;SDS011;53957;47.222;18.670;2022-10-16T06:45:31;6.45;;;5.43;;
67051;SDS011;53957;47.222;18.670;2022-10-16T06:48:54;16.37;;;5.97;;
67051;SDS011;53957;47.222;18.670;2022-10-16T06:52:05;7.00;;;5.50;;
67051;SDS011;53957;47.222;18.670;2022-10-16T06:55:08;8.10;;;6.30;;
67051;SDS011;53957;47.222;18.670;2022-10-16T06:58:51;8.27;;;5.72;;
67051;SDS011;53957;47.222;18.670;2022-10-16T07:01:54;8.93;;;6.10;;
67051;SDS011;53957;47.222;18.670;2022-10-16T07:05:18;7.60;;;5.78;;
67051;SDS011;53957;47.222;18.670;2022-10-16T07:08:41;9.55;;;6.28;;
67051;SDS011;53957;47.222;18.670;2022-10-16T07:12:06;6.90;;;6.20;;
67051;SDS011;53957;47.222;18.670;2022-10-16T07:15:48;6.97;;;4.97;;
67051;SDS011;53957;47.222;18.670;2022-10-16T07:19:17;8.45;;;5.87;;
67051;SDS011;53957;47.222;18.670;2022-10-16T07:22:40;8.80;;;6.60;;
67051;SDS011;53957;47.222;18.670;2022-10-16T07:26:03;9.18;;;6.65;;
67051;SDS011;53957;47.222;18.670;2022-10-16T07:29:21;7.60;;;5.65;;
67051;SDS011;53957;47.222;18.670;2022-10-16T07:32:25;9.25;;;5.97;;
67051;SDS011;53957;47.222;18.670;2022-10-16T07:35:52;8.20;;;5.97;;
67051;SDS011;53957;47.222;18.670;2022-10-16T07:39:00;10.25;;;6.90;;
67051;SDS011;53957;47.222;18.670;2022-10-16T07:42:32;10.70;;;6.45;;
67051;SDS011;53957;47.222;18.670;2022-10-16T07:45:55;12.93;;;8.00;;
67051;SDS011;53957;47.222;18.670;2022-10-16T07:49:22;9.02;;;5.70;;
67051;SDS011;53957;47.222;18.670;2022-10-16T07:52:29;8.30;;;5.40;;
67051;SDS011;53957;47.222;18.670;2022-10-16T07:55:35;7.90;;;6.05;;
67051;SDS011;53957;47.222;18.670;2022-10-16T07:58:58;10.48;;;5.43;;
67051;SDS011;53957;47.222;18.670;2022-10-16T08:02:01;8.77;;;6.03;;
67051;SDS011;53957;47.222;18.670;2022-10-16T08:05:24;9.63;;;6.20;;
67051;SDS011;53957;47.222;18.670;2022-10-16T08:08:47;14.20;;;5.80;;
67051;SDS011;53957;47.222;18.670;2022-10-16T08:12:10;6.43;;;5.18;;
67051;SDS011;53957;47.222;18.670;2022-10-16T08:15:18;10.63;;;6.28;;
67051;SDS011;53957;47.222;18.670;2022-10-16T08:18:25;7.50;;;5.57;;
67051;SDS011;53957;47.222;18.670;2022-10-16T08:25:08;7.53;;;5.62;;
67051;SDS011;53957;47.222;18.670;2022-10-16T08:28:31;8.85;;;5.60;;
67051;SDS011;53957;47.222;18.670;2022-10-16T08:31:39;7.65;;;5.50;;
67051;SDS011;53957;47.222;18.670;2022-10-16T08:34:43;9.00;;;6.12;;
67051;SDS011;53957;47.222;18.670;2022-10-16T08:38:04;7.15;;;5.40;;
67051;SDS011;53957;47.222;18.670;2022-10-16T08:41:48;6.93;;;5.47;;
67051;SDS011;53957;47.222;18.670;2022-10-16T08:52:13;6.70;;;4.68;;
67051;SDS011;53957;47.222;18.670;2022-10-16T08:55:59;6.72;;;5.07;;
67051;SDS011;53957;47.222;18.670;2022-10-16T08:58:48;9.95;;;5.28;;
67051;SDS011;53957;47.222;18.670;2022-10-16T09:01:55;6.20;;;4.87;;
67051;SDS011;53957;47.222;18.670;2022-10-16T09:21:30;10.52;;;5.78;;
67051;SDS011;53957;47.222;18.670;2022-10-16T09:28:07;9.97;;;5.37;;
67051;SDS011;53957;47.222;18.670;2022-10-16T09:31:17;7.68;;;6.57;;
67051;SDS011;53957;47.222;18.670;2022-10-16T09:34:34;12.30;;;6.50;;
67051;SDS011;53957;47.222;18.670;2022-10-16T09:37:40;10.73;;;5.60;;
67051;SDS011;53957;47.222;18.670;2022-10-16T09:40:45;10.60;;;5.78;;
67051;SDS011;53957;47.222;18.670;2022-10-16T09:43:55;8.32;;;5.75;;
67051;SDS011;53957;47.222;18.670;2022-10-16T09:47:25;10.05;;;5.93;;
67051;SDS011;53957;47.222;18.670;2022-10-16T09:50:59;8.15;;;6.72;;
67051;SDS011;53957;47.222;18.670;2022-10-16T09:54:24;15.85;;;6.53;;
67051;SDS011;53957;47.222;18.670;2022-10-16T09:57:29;10.05;;;5.78;;
67051;SDS011;53957;47.222;18.670;2022-10-16T10:00:54;11.60;;;6.28;;
67051;SDS011;53957;47.222;18.670;2022-10-16T10:04:07;12.85;;;5.70;;
67051;SDS011;53957;47.222;18.670;2022-10-16T10:07:31;7.68;;;6.03;;
67051;SDS011;53957;47.222;18.670;2022-10-16T10:11:02;10.70;;;6.12;;
67051;SDS011;53957;47.222;18.670;2022-10-16T10:14:46;7.53;;;5.62;;
67051;SDS011;53957;47.222;18.670;2022-10-16T10:18:31;13.70;;;6.28;;
67051;SDS011;53957;47.222;18.670;2022-10-16T10:21:44;8.57;;;5.90;;
67051;SDS011;53957;47.222;18.670;2022-10-16T10:25:53;8.60;;;6.43;;
67051;SDS011;53957;47.222;18.670;2022-10-16T10:29:24;8.80;;;6.30;;
67051;SDS011;53957;47.222;18.670;2022-10-16T10:33:16;7.90;;;5.97;;
67051;SDS011;53957;47.222;18.670;2022-10-16T11:02:01;14.32;;;6.82;;
67051;SDS011;53957;47.222;18.670;2022-10-16T11:05:40;13.10;;;5.93;;
67051;SDS011;53957;47.222;18.670;2022-10-16T11:12:46;11.48;;;6.40;;
67051;SDS011;53957;47.222;18.670;2022-10-16T11:16:18;10.15;;;5.62;;
67051;SDS011;53957;47.222;18.670;2022-10-16T11:19:41;10.50;;;5.15;;
67051;SDS011;53957;47.222;18.670;2022-10-16T11:23:00;6.82;;;5.22;;
67051;SDS011;53957;47.222;18.670;2022-10-16T11:26:11;6.55;;;5.25;;
67051;SDS011;53957;47.222;18.670;2022-10-16T11:29:26;9.57;;;5.72;;
67051;SDS011;53957;47.222;18.670;2022-10-16T11:33:00;7.47;;;5.05;;
67051;SDS011;53957;47.222;18.670;2022-10-16T11:37:11;8.25;;;5.32;;
67051;SDS011;53957;47.222;18.670;2022-10-16T11:40:37;7.47;;;5.47;;
67051;SDS011;53957;47.222;18.670;2022-10-16T11:51:17;6.30;;;4.72;;
67051;SDS011;53957;47.222;18.670;2022-10-16T11:54:49;6.57;;;4.82;;
67051;SDS011;53957;47.222;18.670;2022-10-16T11:57:54;6.53;;;4.95;;
67051;SDS011;53957;47.222;18.670;2022-10-16T12:07:51;8.90;;;5.57;;
67051;SDS011;53957;47.222;18.670;2022-10-16T12:11:07;10.35;;;4.80;;
67051;SDS011;53957;47.222;18.670;2022-10-16T12:14:44;8.15;;;4.65;;
67051;SDS011;53957;47.222;18.670;2022-10-16T12:18:27;5.93;;;4.43;;
67051;SDS011;53957;47.222;18.670;2022-10-16T12:21:30;7.30;;;3.75;;
67051;SDS011;53957;47.222;18.670;2022-10-16T12:28:00;5.65;;;4.05;;
67051;SDS011;53957;47.222;18.670;2022-10-16T12:31:09;6.35;;;4.90;;
67051;SDS011;53957;47.222;18.670;2022-10-16T12:34:55;11.68;;;4.28;;
67051;SDS011;53957;47.222;18.670;2022-10-16T12:37:44;6.90;;;3.75;;
67051;SDS011;53957;47.222;18.670;2022-10-16T12:40:55;7.53;;;3.83;;
67051;SDS011;53957;47.222;18.670;2022-10-16T12:44:02;5.12;;;3.80;;
67051;SDS011;53957;47.222;18.670;2022-10-16T12:47:18;8.60;;;4.25;;
67051;SDS011;53957;47.222;18.670;2022-10-16T12:50:36;5.53;;;4.05;;
67051;SDS011;53957;47.222;18.670;2022-10-16T12:53:42;7.30;;;3.90;;
67051;SDS011;53957;47.222;18.670;2022-10-16T13:00:21;5.87;;;3.90;;
67051;SDS011;53957;47.222;18.670;2022-10-16T13:11:43;5.87;;;3.58;;
67051;SDS011;53957;47.222;18.670;2022-10-16T13:18:15;4.87;;;3.97;;
67051;SDS011;53957;47.222;18.670;2022-10-16T13:21:33;4.78;;;3.65;;
67051;SDS011;53957;47.222;18.670;2022-10-16T13:28:04;6.40;;;3.90;;
67051;SDS011;53957;47.222;18.670;2022-10-16T13:31:18;5.18;;;3.90;;
67051;SDS011;53957;47.222;18.670;2022-10-16T13:34:27;4.82;;;3.70;;
67051;SDS011;53957;47.222;18.670;2022-10-16T13:37:30;6.03;;;3.70;;
67051;SDS011;53957;47.222;18.670;2022-10-16T13:40:33;5.32;;;3.90;;
67051;SDS011;53957;47.222;18.670;2022-10-16T13:43:38;7.90;;;3.53;;
67051;SDS011;53957;47.222;18.670;2022-10-16T13:47:03;5.72;;;3.55;;
67051;SDS011;53957;47.222;18.670;2022-10-16T13:50:11;5.50;;;3.72;;
67051;SDS011;53957;47.222;18.670;2022-10-16T13:53:15;4.60;;;3.17;;
67051;SDS011;53957;47.222;18.670;2022-10-16T13:56:19;4.95;;;3.78;;
67051;SDS011;53957;47.222;18.670;2022-10-16T13:59:32;4.70;;;3.95;;
67051;SDS011;53957;47.222;18.670;2022-10-16T14:02:45;4.97;;;3.83;;
67051;SDS011;53957;47.222;18.670;2022-10-16T14:06:03;6.65;;;3.70;;
67051;SDS011;53957;47.222;18.670;2022-10-16T14:12:29;6.72;;;4.05;;
67051;SDS011;53957;47.222;18.670;2022-10-16T14:15:33;7.05;;;3.83;;
67051;SDS011;53957;47.222;18.670;2022-10-16T14:18:39;12.65;;;4.10;;
67051;SDS011;53957;47.222;18.670;2022-10-16T14:21:42;8.30;;;4.15;;
67051;SDS011;53957;47.222;18.670;2022-10-16T14:24:45;4.68;;;3.80;;
67051;SDS011;53957;47.222;18.670;2022-10-16T14:28:13;7.18;;;4.07;;
67051;SDS011;53957;47.222;18.670;2022-10-16T15:11:22;9.27;;;3.70;;
67051;SDS011;53957;47.222;18.670;2022-10-16T15:14:47;4.25;;;3.33;;
67051;SDS011;53957;47.222;18.670;2022-10-16T15:17:50;4.47;;;3.30;;
67051;SDS011;53957;47.222;18.670;2022-10-16T15:20:56;3.83;;;3.37;;
67051;SDS011;53957;47.222;18.670;2022-10-16T15:23:59;7.82;;;3.50;;
67051;SDS011;53957;47.222;18.670;2022-10-16T15:27:03;7.07;;;3.90;;
67051;SDS011;53957;47.222;18.670;2022-10-16T15:30:05;6.30;;;3.65;;
67051;SDS011;53957;47.222;18.670;2022-10-16T15:33:29;3.85;;;3.45;;
67051;SDS011;53957;47.222;18.670;2022-10-16T15:37:04;4.22;;;3.22;;
67051;SDS011;53957;47.222;18.670;2022-10-16T15:40:33;11.12;;;2.90;;
67051;SDS011;53957;47.222;18.670;2022-10-16T15:43:36;5.55;;;3.28;;
67051;SDS011;53957;47.222;18.670;2022-10-16T15:46:59;4.40;;;2.90;;
67051;SDS011;53957;47.222;18.670;2022-10-16T15:50:04;3.45;;;3.10;;
67051;SDS011;53957;47.222;18.670;2022-10-16T15:53:12;7.80;;;3.70;;
67051;SDS011;53957;47.222;18.670;2022-10-16T15:56:15;6.85;;;4.93;;
67051;SDS011;53957;47.222;18.670;2022-10-16T15:59:38;6.45;;;3.90;;
67051;SDS011;53957;47.222;18.670;2022-10-16T16:02:41;8.63;;;4.85;;
67051;SDS011;53957;47.222;18.670;2022-10-16T16:06:09;4.78;;;4.30;;
67051;SDS011;53957;47.222;18.670;2022-10-16T16:09:15;10.63;;;4.47;;
67051;SDS011;53957;47.222;18.670;2022-10-16T16:12:18;5.82;;;5.20;;
67051;SDS011;53957;47.222;18.670;2022-10-16T16:15:40;5.40;;;4.85;;
67051;SDS011;53957;47.222;18.670;2022-10-16T16:18:48;9.45;;;8.45;;
67051;SDS011;53957;47.222;18.670;2022-10-16T16:21:54;10.55;;;6.90;;
67051;SDS011;53957;47.222;18.670;2022-10-16T16:24:58;6.25;;;4.05;;
67051;SDS011;53957;47.222;18.670;2022-10-16T16:28:24;6.43;;;3.30;;
67051;SDS011;53957;47.222;18.670;2022-10-16T16:31:47;6.62;;;3.20;;
67051;SDS011;53957;47.222;18.670;2022-10-16T16:35:10;5.85;;;3.47;;
67051;SDS011;53957;47.222;18.670;2022-10-16T16:38:13;3.85;;;3.30;;
67051;SDS011;53957;47.222;18.670;2022-10-16T16:41:17;7.93;;;3.55;;
67051;SDS011;53957;47.222;18.670;2022-10-16T16:44:36;8.02;;;3.70;;
67051;SDS011;53957;47.222;18.670;2022-10-16T16:47:59;5.15;;;3.80;;
67051;SDS011;53957;47.222;18.670;2022-10-16T16:51:42;4.85;;;3.87;;
67051;SDS011;53957;47.222;18.670;2022-10-16T16:54:45;10.65;;;3.47;;
67051;SDS011;53957;47.222;18.670;2022-10-16T16:58:05;10.63;;;3.92;;
67051;SDS011;53957;47.222;18.670;2022-10-16T17:01:28;8.07;;;4.07;;
67051;SDS011;53957;47.222;18.670;2022-10-16T17:04:35;8.98;;;3.75;;
67051;SDS011;53957;47.222;18.670;2022-10-16T17:07:54;5.18;;;4.28;;
67051;SDS011;53957;47.222;18.670;2022-10-16T18:22:06;7.22;;;5.32;;
67051;SDS011;53957;47.222;18.670;2022-10-16T18:25:09;6.15;;;4.82;;
67051;SDS011;53957;47.222;18.670;2022-10-16T18:28:12;10.48;;;4.93;;
67051;SDS011;53957;47.222;18.670;2022-10-16T18:31:16;8.27;;;5.35;;
67051;SDS011;53957;47.222;18.670;2022-10-16T18:34:19;7.18;;;5.15;;
67051;SDS011;53957;47.222;18.670;2022-10-16T18:37:22;9.07;;;5.05;;
67051;SDS011;53957;47.222;18.670;2022-10-16T18:40:25;6.70;;;4.60;;
67051;SDS011;53957;47.222;18.670;2022-10-16T18:43:28;8.27;;;5.35;;
67051;SDS011;53957;47.222;18.670;2022-10-16T18:46:32;6.37;;;5.07;;
67051;SDS011;53957;47.222;18.670;2022-10-16T18:49:35;8.73;;;5.20;;
67051;SDS011;53957;47.222;18.670;2022-10-16T18:52:38;6.68;;;5.43;;
67051;SDS011;53957;47.222;18.670;2022-10-16T18:55:41;9.98;;;5.68;;
67051;SDS011;53957;47.222;18.670;2022-10-16T18:58:44;6.53;;;5.20;;
67051;SDS011;53957;47.222;18.670;2022-10-16T19:01:50;6.32;;;4.93;;
67051;SDS011;53957;47.222;18.670;2022-10-16T19:04:53;10.02;;;6.20;;
67051;SDS011;53957;47.222;18.670;2022-10-16T19:07:56;7.35;;;5.70;;
67051;SDS011;53957;47.222;18.670;2022-10-16T19:11:13;6.95;;;5.60;;
67051;SDS011;53957;47.222;18.670;2022-10-16T19:14:17;9.07;;;5.75;;
67051;SDS011;53957;47.222;18.670;2022-10-16T19:17:22;10.68;;;6.57;;
67051;SDS011;53957;47.222;18.670;2022-10-16T19:20:25;11.77;;;6.32;;
67051;SDS011;53957;47.222;18.670;2022-10-16T19:23:27;8.60;;;6.45;;
67051;SDS011;53957;47.222;18.670;2022-10-16T19:26:31;13.80;;;6.35;;
67051;SDS011;53957;47.222;18.670;2022-10-16T19:29:39;10.77;;;7.10;;
67051;SDS011;53957;47.222;18.670;2022-10-16T19:32:42;11.12;;;6.30;;
67051;SDS011;53957;47.222;18.670;2022-10-16T19:35:46;8.73;;;6.15;;
67051;SDS011;53957;47.222;18.670;2022-10-16T19:38:54;12.00;;;7.25;;
67051;SDS011;53957;47.222;18.670;2022-10-16T19:41:58;14.70;;;7.05;;
67051;SDS011;53957;47.222;18.670;2022-10-16T19:45:01;14.10;;;7.97;;
67051;SDS011;53957;47.222;18.670;2022-10-16T19:48:04;10.48;;;6.70;;
67051;SDS011;53957;47.222;18.670;2022-10-16T19:51:10;13.65;;;6.97;;
67051;SDS011;53957;47.222;18.670;2022-10-16T19:54:20;9.73;;;6.30;;
67051;SDS011;53957;47.222;18.670;2022-10-16T19:57:24;12.15;;;6.82;;
67051;SDS011;53957;47.222;18.670;2022-10-16T20:00:28;9.00;;;6.68;;
67051;SDS011;53957;47.222;18.670;2022-10-16T20:03:31;10.07;;;6.57;;
67051;SDS011;53957;47.222;18.670;2022-10-16T20:06:33;9.10;;;6.55;;
67051;SDS011;53957;47.222;18.670;2022-10-16T20:09:36;9.50;;;7.20;;
67051;SDS011;53957;47.222;18.670;2022-10-16T20:12:39;10.85;;;5.90;;
67051;SDS011;53957;47.222;18.670;2022-10-16T20:15:42;9.77;;;6.55;;
67051;SDS011;53957;47.222;18.670;2022-10-16T20:18:48;7.93;;;6.35;;
67051;SDS011;53957;47.222;18.670;2022-10-16T20:21:52;13.43;;;7.47;;
67051;SDS011;53957;47.222;18.670;2022-10-16T20:24:55;10.07;;;6.93;;
67051;SDS011;53957;47.222;18.670;2022-10-16T20:27:57;9.63;;;6.75;;
67051;SDS011;53957;47.222;18.670;2022-10-16T20:31:04;11.32;;;6.97;;
67051;SDS011;53957;47.222;18.670;2022-10-16T20:34:09;10.05;;;7.22;;
67051;SDS011;53957;47.222;18.670;2022-10-16T20:37:14;7.90;;;6.15;;
67051;SDS011;53957;47.222;18.670;2022-10-16T20:40:18;10.35;;;6.78;;
67051;SDS011;53957;47.222;18.670;2022-10-16T20:43:20;9.80;;;6.47;;
67051;SDS011;53957;47.222;18.670;2022-10-16T20:46:24;8.57;;;6.22;;
67051;SDS011;53957;47.222;18.670;2022-10-16T20:49:28;9.32;;;6.93;;
67051;SDS011;53957;47.222;18.670;2022-10-16T20:52:42;8.52;;;6.10;;
67051;SDS011;53957;47.222;18.670;2022-10-16T20:55:44;9.13;;;6.75;;
67051;SDS011;53957;47.222;18.670;2022-10-16T20:58:48;11.12;;;7.68;;
67051;SDS011;53957;47.222;18.670;2022-10-16T21:01:51;10.05;;;6.90;;
67051;SDS011;53957;47.222;18.670;2022-10-16T21:04:54;10.95;;;7.07;;
67051;SDS011;53957;47.222;18.670;2022-10-16T21:07:57;10.60;;;6.72;;
67051;SDS011;53957;47.222;18.670;2022-10-16T21:10:59;13.52;;;7.95;;
67051;SDS011;53957;47.222;18.670;2022-10-16T21:14:03;14.93;;;7.00;;
67051;SDS011;53957;47.222;18.670;2022-10-16T21:17:07;8.82;;;7.60;;
67051;SDS011;53957;47.222;18.670;2022-10-16T21:20:09;13.18;;;7.20;;
67051;SDS011;53957;47.222;18.670;2022-10-16T21:23:12;9.68;;;6.85;;
67051;SDS011;53957;47.222;18.670;2022-10-16T21:26:15;11.95;;;7.12;;
67051;SDS011;53957;47.222;18.670;2022-10-16T21:29:19;14.85;;;7.82;;
67051;SDS011;53957;47.222;18.670;2022-10-16T21:32:22;11.75;;;7.80;;
67051;SDS011;53957;47.222;18.670;2022-10-16T21:35:25;11.12;;;8.30;;
67051;SDS011;53957;47.222;18.670;2022-10-16T21:38:28;10.57;;;7.30;;
67051;SDS011;53957;47.222;18.670;2022-10-16T21:41:31;10.27;;;7.37;;
67051;SDS011;53957;47.222;18.670;2022-10-16T21:44:33;10.02;;;7.25;;
67051;SDS011;53957;47.222;18.670;2022-10-16T21:47:36;10.98;;;7.55;;
67051;SDS011;53957;47.222;18.670;2022-10-16T21:50:39;9.80;;;8.15;;
67051;SDS011;53957;47.222;18.670;2022-10-16T21:53:49;11.82;;;7.47;;
67051;SDS011;53957;47.222;18.670;2022-10-16T21:56:52;11.80;;;8.07;;
67051;SDS011;53957;47.222;18.670;2022-10-16T21:59:55;11.48;;;7.50;;
67051;SDS011;53957;47.222;18.670;2022-10-16T22:02:57;8.57;;;7.65;;
67051;SDS011;53957;47.222;18.670;2022-10-16T22:06:02;12.57;;;8.07;;
67051;SDS011;53957;47.222;18.670;2022-10-16T22:09:08;18.12;;;7.80;;
67051;SDS011;53957;47.222;18.670;2022-10-16T22:12:15;11.18;;;7.35;;
67051;SDS011;53957;47.222;18.670;2022-10-16T22:15:20;10.73;;;7.25;;
67051;SDS011;53957;47.222;18.670;2022-10-16T22:18:29;9.57;;;7.10;;
67051;SDS011;53957;47.222;18.670;2022-10-16T22:21:33;10.00;;;7.20;;
67051;SDS011;53957;47.222;18.670;2022-10-16T22:24:37;9.07;;;6.82;;
67051;SDS011;53957;47.222;18.670;2022-10-16T22:27:40;9.52;;;7.03;;
67051;SDS011;53957;47.222;18.670;2022-10-16T22:30:43;13.57;;;6.97;;